Time;durP1;ratioP1;P1;durP2;ratioP2;P2;SDS_P1;SDS_P2;PMS_P1;PMS_P2;Temp;Humidity;BMP_temperature;BMP_pressure;BME280_temperature;BME280_humidity;BME280_pressure;Samples;Min_cycle;Max_cycle;Signal;HPM_P1;HPM_P2
2023/08/27 00:01:11;;;;;;;6.63;3.10;;;;;;;24.15;66.93;99755.88;5087136;28;20217;-58
2023/08/27 00:03:36;;;;;;;7.73;2.93;;;;;;;24.15;67.20;99769.47;5089452;28;20278;-59
2023/08/27 00:06:02;;;;;;;12.33;3.77;;;;;;;24.14;67.25;99759.19;5082407;28;20530;-59
2023/08/27 00:08:28;;;;;;;12.00;3.27;;;;;;;24.14;67.56;99791.72;5099193;28;20182;-59
2023/08/27 00:10:58;;;;;;;15.03;2.60;;;;;;;24.13;67.23;99813.16;5087460;28;20193;-59
2023/08/27 00:13:23;;;;;;;6.13;2.87;;;;;;;24.11;66.60;99826.38;5069604;28;21219;-59
2023/08/27 00:15:49;;;;;;;7.40;3.13;;;;;;;24.11;67.14;99815.66;5072289;28;20415;-58
2023/08/27 00:18:14;;;;;;;4.20;2.60;;;;;;;24.10;66.97;99810.31;5072663;28;20174;-59
2023/08/27 00:20:41;;;;;;;9.57;2.63;;;;;;;24.09;66.70;99812.38;5062924;28;1171461;-58
2023/08/27 00:23:08;;;;;;;7.07;3.20;;;;;;;24.10;67.30;99808.25;5117846;28;20330;-58
2023/08/27 00:25:34;;;;;;;5.03;3.13;;;;;;;24.11;67.07;99814.84;5123202;28;20448;-59
2023/08/27 00:27:59;;;;;;;6.87;2.60;;;;;;;24.11;66.97;99804.13;5090872;28;20436;-58
2023/08/27 00:30:25;;;;;;;9.53;2.90;;;;;;;24.12;67.00;99810.69;5088209;28;20471;-59
2023/08/27 00:32:50;;;;;;;7.53;3.37;;;;;;;24.10;67.24;99808.25;5098624;28;20185;-59
2023/08/27 00:35:16;;;;;;;12.60;3.47;;;;;;;24.10;67.28;99819.81;5111019;28;20202;-60
2023/08/27 00:37:41;;;;;;;7.50;3.30;;;;;;;24.10;67.19;99813.19;5092539;28;20197;-58
2023/08/27 00:40:07;;;;;;;7.13;3.07;;;;;;;24.10;67.00;99793.00;5106845;28;20633;-58
2023/08/27 00:42:33;;;;;;;9.60;3.23;;;;;;;24.09;67.18;99776.97;5105094;28;20593;-58
2023/08/27 00:44:58;;;;;;;6.10;2.57;;;;;;;24.09;67.09;99774.06;5105994;28;20426;-58
2023/08/27 00:47:24;;;;;;;5.60;3.10;;;;;;;24.08;66.58;99796.31;5091848;28;20183;-59
2023/08/27 00:49:50;;;;;;;4.63;2.57;;;;;;;24.10;67.06;99813.19;5083364;28;20210;-58
2023/08/27 00:52:16;;;;;;;8.53;3.70;;;;;;;24.09;66.85;99818.13;5087649;28;20185;-59
2023/08/27 00:54:42;;;;;;;9.63;3.27;;;;;;;24.09;66.77;99809.50;5072554;28;20182;-58
2023/08/27 00:57:07;;;;;;;4.50;2.97;;;;;;;24.07;67.25;99794.69;5094927;28;20845;-58
2023/08/27 00:59:33;;;;;;;6.77;2.50;;;;;;;24.07;66.89;99809.13;5107404;28;20189;-59
2023/08/27 01:01:58;;;;;;;7.43;2.50;;;;;;;24.07;67.39;99797.56;5084762;28;20205;-59
2023/08/27 01:04:23;;;;;;;6.00;2.57;;;;;;;24.07;66.99;99791.81;5110692;28;20170;-58
2023/08/27 01:06:49;;;;;;;5.17;2.70;;;;;;;24.08;67.14;99783.97;5109238;28;20175;-58
2023/08/27 01:09:44;;;;;;;5.43;2.47;;;;;;;24.07;66.97;99768.72;5101059;28;20178;-58
2023/08/27 01:12:31;;;;;;;5.70;2.97;;;;;;;24.07;67.44;99771.63;5083358;28;20558;-58
2023/08/27 01:14:56;;;;;;;5.07;2.87;;;;;;;24.06;67.18;99754.72;5087839;28;20432;-59
2023/08/27 01:17:22;;;;;;;7.10;3.40;;;;;;;24.06;67.43;99749.81;5061710;28;20447;-59
2023/08/27 01:19:48;;;;;;;10.20;3.30;;;;;;;24.06;67.56;99746.91;5090591;28;20209;-58
2023/08/27 01:22:14;;;;;;;7.17;3.00;;;;;;;24.06;67.19;99764.22;5090564;28;20478;-58
2023/08/27 01:24:39;;;;;;;7.40;3.20;;;;;;;24.05;67.23;99787.72;5090324;28;20955;-59
2023/08/27 01:27:13;;;;;;;6.90;3.10;;;;;;;24.05;67.03;99790.59;5089267;28;20826;-58
2023/08/27 01:29:59;;;;;;;4.87;2.63;;;;;;;24.03;66.90;99785.25;5056555;28;20170;-59
2023/08/27 01:32:32;;;;;;;6.97;2.90;;;;;;;24.03;67.23;99767.97;5092351;28;20443;-58
2023/08/27 01:34:58;;;;;;;8.23;2.90;;;;;;;24.04;67.40;99760.13;5074720;28;20440;-58
2023/08/27 01:37:23;;;;;;;10.07;2.57;;;;;;;24.04;67.71;99737.06;5089636;28;20428;-59
2023/08/27 01:40:05;;;;;;;4.60;2.60;;;;;;;24.03;67.27;99710.28;5073591;28;20181;-58
2023/08/27 01:42:35;;;;;;;6.27;2.87;;;;;;;24.01;67.25;99691.75;5094901;27;20181;-59
2023/08/27 01:45:01;;;;;;;11.17;3.10;;;;;;;24.03;67.40;99698.75;5073451;28;20822;-58
2023/08/27 01:47:26;;;;;;;5.17;3.20;;;;;;;24.01;67.64;99683.94;5090683;28;20482;-59
2023/08/27 01:49:52;;;;;;;5.47;3.30;;;;;;;24.00;67.06;99667.91;5094373;28;20198;-58
2023/08/27 01:52:17;;;;;;;5.80;2.60;;;;;;;24.01;67.14;99672.41;5100523;28;20178;-59
2023/08/27 01:54:42;;;;;;;4.30;2.80;;;;;;;24.01;66.86;99692.59;5111055;28;20213;-59
2023/08/27 01:57:08;;;;;;;9.77;2.70;;;;;;;24.01;66.91;99706.19;5111111;28;20177;-58
2023/08/27 01:59:33;;;;;;;5.73;2.80;;;;;;;24.01;67.03;99721.44;5101158;28;20608;-59
2023/08/27 02:01:59;;;;;;;5.23;2.90;;;;;;;24.01;66.90;99717.72;5090556;28;20194;-58
2023/08/27 02:04:24;;;;;;;6.10;2.43;;;;;;;24.00;67.59;99705.38;5090442;28;20167;-58
2023/08/27 02:06:50;;;;;;;11.67;3.20;;;;;;;24.00;67.65;99705.38;5108612;28;20181;-59
2023/08/27 02:09:15;;;;;;;5.80;2.73;;;;;;;23.99;67.37;99697.97;5110875;28;20174;-59
2023/08/27 02:11:41;;;;;;;9.60;2.73;;;;;;;24.01;67.56;99715.66;5099167;28;20641;-58
2023/08/27 02:14:07;;;;;;;6.67;3.03;;;;;;;23.99;67.38;99735.44;5090037;28;20159;-58
2023/08/27 02:16:33;;;;;;;6.73;2.50;;;;;;;23.99;67.68;99708.69;5089288;28;20424;-59
2023/08/27 02:18:59;;;;;;;8.90;3.10;;;;;;;23.98;67.17;99707.06;5089171;28;20625;-58
2023/08/27 02:21:24;;;;;;;5.67;2.60;;;;;;;23.99;67.55;99706.63;5091269;28;20480;-59
2023/08/27 02:23:50;;;;;;;3.97;2.90;;;;;;;23.98;67.46;99693.44;5070818;28;20179;-58
2023/08/27 02:26:15;;;;;;;7.27;2.63;;;;;;;23.98;67.04;99679.03;5097874;27;20181;-59
2023/08/27 02:28:41;;;;;;;5.63;2.30;;;;;;;23.97;67.40;99703.34;5091825;28;20187;-58
2023/08/27 02:31:08;;;;;;;7.17;2.93;;;;;;;23.97;67.30;99726.44;5090046;28;20162;-59
2023/08/27 02:33:33;;;;;;;8.03;2.80;;;;;;;23.95;67.67;99731.81;5097662;28;20261;-59
2023/08/27 02:35:59;;;;;;;7.07;3.03;;;;;;;23.96;67.78;99724.81;5106492;28;21018;-59
2023/08/27 02:38:24;;;;;;;9.70;3.23;;;;;;;23.95;67.60;99728.94;5090628;27;20169;-59
2023/08/27 02:40:50;;;;;;;4.33;2.83;;;;;;;23.94;67.79;99721.50;5107083;27;20202;-59
2023/08/27 02:43:15;;;;;;;7.43;2.70;;;;;;;23.96;67.33;99695.13;5130706;27;20161;-59
2023/08/27 02:45:41;;;;;;;8.67;2.60;;;;;;;23.95;67.29;99697.22;5080701;28;20189;-59
2023/08/27 02:48:07;;;;;;;6.43;2.70;;;;;;;23.96;66.92;99712.44;5109941;28;20193;-59
2023/08/27 02:50:32;;;;;;;8.80;2.80;;;;;;;23.95;67.07;99711.63;5109915;28;20436;-58
2023/08/27 02:52:58;;;;;;;7.70;3.63;;;;;;;23.94;67.07;99718.63;5096324;28;20193;-58
2023/08/27 02:55:25;;;;;;;7.50;2.80;;;;;;;23.91;66.81;99713.75;5099487;28;20189;-58
2023/08/27 02:57:50;;;;;;;4.37;2.83;;;;;;;23.92;67.18;99708.78;5107554;27;20174;-59
2023/08/27 03:00:16;;;;;;;5.63;2.30;;;;;;;23.92;67.33;99703.84;5070663;28;21421;-58
2023/08/27 03:02:41;;;;;;;4.87;2.67;;;;;;;23.92;67.34;99698.06;5092251;28;20568;-59
2023/08/27 03:05:07;;;;;;;13.53;3.60;;;;;;;23.91;67.63;99696.44;5095512;28;20667;-59
2023/08/27 03:07:33;;;;;;;6.93;2.90;;;;;;;23.92;67.54;99692.31;5099650;28;20620;-58
2023/08/27 03:09:58;;;;;;;8.67;3.13;;;;;;;23.92;67.50;99703.00;5106055;27;20832;-58
2023/08/27 03:12:23;;;;;;;8.10;2.47;;;;;;;23.92;67.56;99698.06;5108538;28;20648;-58
2023/08/27 03:14:49;;;;;;;5.90;3.30;;;;;;;23.92;67.42;99698.06;5108263;28;20188;-58
2023/08/27 03:17:14;;;;;;;6.47;3.30;;;;;;;23.92;67.46;99712.50;5107262;28;20173;-58
2023/08/27 03:19:40;;;;;;;4.87;2.83;;;;;;;23.90;67.61;99708.41;5092526;28;20174;-59
2023/08/27 03:22:06;;;;;;;5.80;2.70;;;;;;;23.90;67.46;99686.16;5090425;28;20244;-58
2023/08/27 03:24:32;;;;;;;6.20;2.70;;;;;;;23.90;67.45;99677.50;5087777;28;20181;-59
2023/08/27 03:26:57;;;;;;;5.43;2.77;;;;;;;23.90;67.28;99671.75;5089304;28;20408;-59
2023/08/27 03:29:23;;;;;;;6.30;2.80;;;;;;;23.91;67.55;99684.06;5090993;28;20185;-59
2023/08/27 03:31:48;;;;;;;6.83;2.80;;;;;;;23.91;67.46;99704.25;5088933;28;20190;-58
2023/08/27 03:34:14;;;;;;;6.00;2.63;;;;;;;23.89;67.50;99722.00;5091030;28;20186;-59
2023/08/27 03:36:40;;;;;;;9.60;2.80;;;;;;;23.90;67.68;99717.88;5108069;28;20273;-58
2023/08/27 03:39:05;;;;;;;6.40;2.43;;;;;;;23.90;67.46;99711.28;5109223;28;20215;-58
2023/08/27 03:41:31;;;;;;;4.77;2.33;;;;;;;23.88;67.28;99696.47;5109892;27;20190;-59
2023/08/27 03:43:56;;;;;;;3.93;2.20;;;;;;;23.88;67.75;99703.03;5103477;28;20181;-58
2023/08/27 03:46:22;;;;;;;8.90;2.93;;;;;;;23.88;67.79;99693.59;5107787;28;20264;-59
2023/08/27 03:48:47;;;;;;;9.10;2.70;;;;;;;23.88;67.47;99696.47;5104005;28;20201;-59
2023/08/27 03:51:13;;;;;;;6.77;3.30;;;;;;;23.88;67.46;99697.25;5086275;28;20173;-58
2023/08/27 03:53:38;;;;;;;7.80;2.60;;;;;;;23.87;67.51;99684.09;5068229;28;20178;-59
2023/08/27 03:56:04;;;;;;;3.77;2.50;;;;;;;23.88;67.41;99679.97;5081958;28;20213;-58
2023/08/27 03:58:29;;;;;;;9.57;2.80;;;;;;;23.86;67.45;99682.47;5108702;28;20631;-59
2023/08/27 04:00:55;;;;;;;7.00;2.50;;;;;;;23.87;67.89;99686.97;5108638;28;20209;-59
2023/08/27 04:03:20;;;;;;;3.93;2.47;;;;;;;23.87;67.59;99691.91;5105289;28;20170;-58
2023/08/27 04:05:49;;;;;;;5.73;2.67;;;;;;;23.87;67.49;99686.16;5104228;28;20223;-58
2023/08/27 04:08:17;;;;;;;4.37;3.00;;;;;;;23.88;67.28;99682.03;5099928;28;20193;-59
2023/08/27 04:10:52;;;;;;;5.40;2.40;;;;;;;23.86;67.36;99667.22;5103763;28;20427;-58
2023/08/27 04:13:20;;;;;;;7.07;2.90;;;;;;;23.87;67.45;99666.81;5104407;28;20438;-59
2023/08/27 04:15:47;;;;;;;5.30;2.43;;;;;;;23.85;67.21;99669.31;5087335;28;20428;-59
2023/08/27 04:18:12;;;;;;;6.00;2.77;;;;;;;23.86;67.38;99670.09;5069205;28;20428;-59
2023/08/27 04:20:38;;;;;;;7.47;2.40;;;;;;;23.85;67.71;99675.06;5071627;28;21111;-59
2023/08/27 04:23:03;;;;;;;7.57;2.40;;;;;;;23.86;67.49;99670.94;5070214;28;20830;-58
2023/08/27 04:25:29;;;;;;;5.83;3.03;;;;;;;23.85;67.42;99666.44;5095090;28;20181;-58
2023/08/27 04:27:56;;;;;;;7.30;2.60;;;;;;;23.85;67.55;99660.66;5108854;28;20645;-58
2023/08/27 04:30:21;;;;;;;9.70;3.13;;;;;;;23.85;67.39;99651.19;5088416;28;20787;-58
2023/08/27 04:32:47;;;;;;;6.40;2.87;;;;;;;23.85;67.55;99659.84;5100312;28;20431;-58
2023/08/27 04:35:13;;;;;;;5.10;2.47;;;;;;;23.85;67.78;99669.31;5108367;28;20184;-58
2023/08/27 04:37:38;;;;;;;8.53;3.50;;;;;;;23.84;67.57;99679.19;5100260;28;20194;-59
2023/08/27 04:40:04;;;;;;;7.20;2.83;;;;;;;23.85;67.45;99689.50;5082775;28;20181;-58
2023/08/27 04:42:30;;;;;;;8.93;3.93;;;;;;;23.83;67.93;99696.94;5090238;28;20197;-59
2023/08/27 04:44:55;;;;;;;6.13;2.67;;;;;;;23.81;67.60;99691.59;5090272;28;20439;-58
2023/08/27 04:47:21;;;;;;;7.63;2.53;;;;;;;23.81;67.61;99697.38;5071167;28;20181;-59
2023/08/27 04:49:46;;;;;;;7.70;2.60;;;;;;;23.80;67.57;99686.25;5109748;27;20208;-59
2023/08/27 04:52:14;;;;;;;5.80;2.37;;;;;;;23.80;67.80;99683.38;5130649;27;20173;-59
2023/08/27 04:54:40;;;;;;;4.77;2.60;;;;;;;23.80;67.58;99694.91;5125656;27;20248;-58
2023/08/27 04:57:05;;;;;;;12.63;2.70;;;;;;;23.81;67.60;99691.59;5111375;28;20424;-58
2023/08/27 04:59:31;;;;;;;5.10;2.67;;;;;;;23.81;67.39;99685.00;5110761;27;20190;-58
2023/08/27 05:01:59;;;;;;;6.33;3.13;;;;;;;23.81;67.15;99676.34;5107539;28;20213;-58
2023/08/27 05:04:26;;;;;;;6.13;2.90;;;;;;;23.80;67.62;99698.63;5093695;28;20174;-58
2023/08/27 05:06:52;;;;;;;9.70;3.63;;;;;;;23.79;67.45;99693.28;5108089;28;20559;-59
2023/08/27 05:09:17;;;;;;;6.00;2.10;;;;;;;23.79;67.46;99699.84;5078619;28;21165;-58
2023/08/27 05:11:43;;;;;;;5.33;2.50;;;;;;;23.79;67.18;99711.38;5111836;28;20916;-60
2023/08/27 05:14:08;;;;;;;6.30;2.57;;;;;;;23.78;67.03;99695.34;5114432;27;20510;-59
2023/08/27 05:16:35;;;;;;;6.20;2.30;;;;;;;23.77;67.16;99685.06;5111409;28;20227;-59
2023/08/27 05:19:00;;;;;;;5.13;2.80;;;;;;;23.78;66.89;99685.88;5093960;28;20455;-59
2023/08/27 05:21:26;;;;;;;9.13;3.10;;;;;;;23.77;66.66;99682.19;5090959;28;20521;-58
2023/08/27 05:23:52;;;;;;;5.90;2.90;;;;;;;23.76;67.22;99669.00;5088366;28;20178;-58
2023/08/27 05:26:18;;;;;;;4.43;2.70;;;;;;;23.77;67.00;99666.94;5091431;28;20214;-58
2023/08/27 05:28:43;;;;;;;4.40;2.83;;;;;;;23.76;66.98;99671.91;5091296;28;20432;-59
2023/08/27 05:31:09;;;;;;;14.30;3.10;;;;;;;23.77;67.14;99669.81;5093281;28;20185;-58
2023/08/27 05:33:34;;;;;;;4.43;2.67;;;;;;;23.76;67.22;99659.53;5091073;28;20220;-58
2023/08/27 05:36:00;;;;;;;8.50;3.57;;;;;;;23.75;67.19;99667.38;5099878;28;20182;-58
2023/08/27 05:38:25;;;;;;;14.23;2.70;;;;;;;23.75;67.08;99680.97;5090933;28;20182;-58
2023/08/27 05:40:51;;;;;;;5.93;2.60;;;;;;;23.73;67.11;99672.75;5090426;28;20218;-59
2023/08/27 05:43:16;;;;;;;6.60;3.20;;;;;;;23.74;67.00;99667.81;5108885;27;20235;-58
2023/08/27 05:45:42;;;;;;;4.50;2.50;;;;;;;23.72;66.96;99668.25;5111295;28;20161;-59
2023/08/27 05:48:07;;;;;;;5.83;2.50;;;;;;;23.73;67.00;99672.75;5104837;28;20186;-58
2023/08/27 05:50:34;;;;;;;13.67;3.03;;;;;;;23.73;67.22;99671.94;5090694;28;20201;-58
2023/08/27 05:52:59;;;;;;;6.03;2.83;;;;;;;23.72;67.26;99684.69;5090445;28;20162;-58
2023/08/27 05:55:25;;;;;;;6.23;2.80;;;;;;;23.71;66.95;99681.03;5101370;28;20712;-59
2023/08/27 05:57:50;;;;;;;5.70;2.50;;;;;;;23.71;66.89;99686.78;5100181;28;20185;-59
2023/08/27 06:00:16;;;;;;;6.13;3.00;;;;;;;23.67;66.80;99679.41;5090481;28;20178;-58
2023/08/27 06:02:41;;;;;;;5.97;2.40;;;;;;;23.69;66.69;99674.06;5091609;28;20197;-58
2023/08/27 06:05:07;;;;;;;8.40;2.50;;;;;;;23.69;66.80;99674.84;5109702;28;20235;-59
2023/08/27 06:07:32;;;;;;;7.90;2.50;;;;;;;23.69;66.77;99677.72;5109783;28;20200;-58
2023/08/27 06:09:58;;;;;;;5.73;2.97;;;;;;;23.69;66.58;99676.94;5096463;28;20182;-59
2023/08/27 06:12:23;;;;;;;6.37;2.73;;;;;;;23.69;66.86;99676.94;5089353;28;20189;-59
2023/08/27 06:14:49;;;;;;;4.30;2.90;;;;;;;23.67;67.02;99677.38;5073514;28;20203;-59
2023/08/27 06:17:14;;;;;;;5.90;2.80;;;;;;;23.67;67.05;99667.88;5088932;28;21062;-59
2023/08/27 06:19:40;;;;;;;6.43;2.60;;;;;;;23.67;67.04;99668.72;5090151;28;20173;-59
2023/08/27 06:22:05;;;;;;;4.60;2.70;;;;;;;23.67;66.68;99671.59;5089976;28;20308;-59
2023/08/27 06:24:30;;;;;;;4.10;2.80;;;;;;;23.67;67.08;99668.72;5092347;28;20235;-59
2023/08/27 06:26:56;;;;;;;5.40;2.53;;;;;;;23.65;67.04;99676.16;5089994;28;20186;-59
2023/08/27 06:29:21;;;;;;;7.60;2.70;;;;;;;23.66;67.24;99678.63;5090237;28;20170;-59
2023/08/27 06:31:47;;;;;;;7.33;2.47;;;;;;;23.66;67.07;99689.31;5071897;28;20217;-58
2023/08/27 06:34:12;;;;;;;3.50;2.30;;;;;;;23.65;67.08;99700.03;5099628;27;20185;-58
2023/08/27 06:36:38;;;;;;;9.10;2.50;;;;;;;23.65;67.04;99693.44;5107184;27;20193;-58
2023/08/27 06:39:04;;;;;;;5.50;2.73;;;;;;;23.63;67.00;99691.00;5089577;28;20593;-57
2023/08/27 06:41:30;;;;;;;7.20;2.43;;;;;;;23.57;66.97;99701.38;5098902;28;20468;-59
2023/08/27 06:43:55;;;;;;;12.60;2.40;;;;;;;23.53;67.31;99712.09;5112359;27;20185;-59
2023/08/27 06:46:21;;;;;;;7.43;3.10;;;;;;;23.56;67.19;99708.38;5106027;28;20621;-58
2023/08/27 06:48:46;;;;;;;4.93;2.10;;;;;;;23.59;67.22;99689.41;5109398;27;20242;-59
2023/08/27 06:51:11;;;;;;;7.40;2.60;;;;;;;23.64;68.08;99669.56;5088402;28;20694;-58
2023/08/27 06:53:37;;;;;;;10.00;2.43;;;;;;;23.65;67.61;99658.88;5104919;28;20649;-59
2023/08/27 06:56:03;;;;;;;5.90;2.73;;;;;;;23.66;68.26;99652.69;5110913;27;20526;-63
2023/08/27 06:58:29;;;;;;;4.33;2.30;;;;;;;23.64;67.73;99652.28;5108868;28;20680;-59
2023/08/27 07:00:55;;;;;;;6.60;2.80;;;;;;;23.64;67.60;99652.28;5096455;28;20288;-59
2023/08/27 07:03:20;;;;;;;11.13;2.80;;;;;;;23.62;67.62;99654.78;5088405;28;20429;-60
2023/08/27 07:05:45;;;;;;;8.03;2.20;;;;;;;23.55;67.82;99654.06;5099356;28;20546;-59
2023/08/27 07:08:11;;;;;;;4.90;2.07;;;;;;;23.55;67.32;99649.13;5096576;28;20182;-58
2023/08/27 07:10:37;;;;;;;3.73;2.10;;;;;;;23.55;67.24;99649.13;5092840;28;20189;-58
2023/08/27 07:13:04;;;;;;;7.40;2.87;;;;;;;23.52;67.27;99649.97;5080456;28;20246;-58
2023/08/27 07:15:29;;;;;;;7.40;2.40;;;;;;;23.44;67.74;99664.91;5089719;28;20185;-59
2023/08/27 07:17:55;;;;;;;5.73;2.60;;;;;;;23.26;68.93;99678.66;5107875;28;20545;-58
2023/08/27 07:20:22;;;;;;;8.93;2.70;;;;;;;23.37;68.82;99683.06;5107477;28;20181;-58
2023/08/27 07:22:48;;;;;;;8.43;3.30;;;;;;;23.34;68.99;99695.44;5101654;28;20206;-58
2023/08/27 07:25:13;;;;;;;7.87;2.70;;;;;;;23.43;68.76;99710.16;5088989;28;20505;-58
2023/08/27 07:27:39;;;;;;;8.67;3.27;;;;;;;23.48;68.50;99717.53;5090524;28;20261;-58
2023/08/27 07:30:05;;;;;;;5.97;2.50;;;;;;;23.49;68.73;99714.22;5108292;28;20173;-58
2023/08/27 07:32:31;;;;;;;5.83;2.77;;;;;;;23.52;68.55;99724.88;5089548;28;20170;-58
2023/08/27 07:34:57;;;;;;;5.30;2.47;;;;;;;23.53;68.94;99729.41;5124689;27;20557;-59
2023/08/27 07:37:22;;;;;;;9.90;2.90;;;;;;;23.53;68.76;99728.59;5114699;27;20445;-58
2023/08/27 07:39:48;;;;;;;8.63;3.03;;;;;;;23.53;68.87;99743.00;5086549;28;20181;-59
2023/08/27 07:42:13;;;;;;;3.77;2.47;;;;;;;23.54;68.69;99728.16;5127783;27;20193;-59
2023/08/27 07:44:39;;;;;;;5.37;2.53;;;;;;;23.55;68.87;99729.81;5090551;28;20193;-58
2023/08/27 07:47:04;;;;;;;7.63;2.67;;;;;;;23.55;69.05;99732.69;5103579;28;20651;-58
2023/08/27 07:49:30;;;;;;;11.83;2.50;;;;;;;23.56;68.87;99727.72;5107809;28;20557;-59
2023/08/27 07:51:55;;;;;;;7.87;2.73;;;;;;;23.54;68.79;99722.38;5104158;28;20184;-59
2023/08/27 07:54:20;;;;;;;6.73;2.93;;;;;;;23.54;68.70;99742.56;5085456;28;20197;-60
2023/08/27 07:56:46;;;;;;;4.30;2.87;;;;;;;23.54;68.94;99742.56;5099897;28;20682;-58
2023/08/27 07:59:11;;;;;;;7.63;2.50;;;;;;;23.43;69.45;99741.06;5107381;28;20660;-59
2023/08/27 08:01:37;;;;;;;5.50;3.17;;;;;;;23.35;69.51;99742.38;5099235;28;20202;-58
2023/08/27 08:04:03;;;;;;;10.03;2.97;;;;;;;23.41;69.33;99734.88;5108339;28;20181;-58
2023/08/27 08:06:28;;;;;;;7.03;3.30;;;;;;;23.47;69.33;99742.66;5106556;28;20186;-58
2023/08/27 08:08:54;;;;;;;8.00;3.40;;;;;;;23.50;68.91;99744.69;5089016;28;20190;-59
2023/08/27 08:11:19;;;;;;;8.97;3.70;;;;;;;23.53;68.85;99743.00;5090178;28;20158;-59
2023/08/27 08:13:46;;;;;;;5.20;2.90;;;;;;;23.47;68.97;99744.69;5094629;28;20239;-57
2023/08/27 08:16:11;;;;;;;6.80;2.60;;;;;;;23.35;69.08;99743.19;5088357;28;20253;-59
2023/08/27 08:18:37;;;;;;;4.57;2.30;;;;;;;23.44;69.05;99752.13;5102757;28;20700;-58
2023/08/27 08:21:02;;;;;;;5.90;3.00;;;;;;;23.50;68.63;99755.38;5108220;28;20221;-58
2023/08/27 08:23:28;;;;;;;7.00;2.40;;;;;;;23.51;68.61;99757.84;5093354;28;20182;-59
2023/08/27 08:25:53;;;;;;;8.37;3.03;;;;;;;23.48;68.55;99752.13;5090042;28;20159;-59
2023/08/27 08:28:19;;;;;;;6.63;3.10;;;;;;;23.46;68.78;99766.94;5074229;28;20246;-58
2023/08/27 08:30:47;;;;;;;6.43;2.67;;;;;;;23.43;68.56;99744.75;5095541;28;20196;-58
2023/08/27 08:33:13;;;;;;;7.57;2.43;;;;;;;23.41;68.81;99747.25;5095906;28;20178;-58
2023/08/27 08:35:39;;;;;;;6.60;2.50;;;;;;;23.47;68.56;99748.41;5092445;28;20481;-58
2023/08/27 08:38:04;;;;;;;4.30;2.77;;;;;;;23.50;68.27;99755.38;5098173;28;20273;-57
2023/08/27 08:40:30;;;;;;;3.87;2.20;;;;;;;23.18;69.22;99767.22;5098176;28;20196;-60
2023/08/27 08:42:59;;;;;;;4.17;2.17;;;;;;;23.36;68.48;99778.56;5105359;28;20185;-58
2023/08/27 08:45:37;;;;;;;4.40;2.60;;;;;;;23.36;68.41;99767.88;5092645;28;20540;-58
2023/08/27 08:48:03;;;;;;;5.83;2.50;;;;;;;23.45;68.42;99776.00;5088612;28;20422;-60
2023/08/27 08:50:29;;;;;;;4.10;2.53;;;;;;;23.34;68.46;99773.22;5076982;28;20443;-58
2023/08/27 08:52:55;;;;;;;7.53;2.90;;;;;;;23.07;69.52;99765.63;5090411;28;20233;-58
2023/08/27 08:55:20;;;;;;;6.53;3.00;;;;;;;23.20;69.17;99758.97;5074978;28;20436;-60
2023/08/27 08:57:56;;;;;;;4.63;2.70;;;;;;;23.35;68.67;99769.13;5058402;28;20617;-58
2023/08/27 09:00:21;;;;;;;4.67;2.63;;;;;;;23.43;68.43;99773.56;5091743;28;20248;-66
2023/08/27 09:02:47;;;;;;;6.93;3.07;;;;;;;23.40;68.46;99765.78;5089783;28;20423;-65
2023/08/27 09:05:12;;;;;;;5.50;2.50;;;;;;;22.81;69.13;99757.63;5091374;28;20178;-65
2023/08/27 09:07:38;;;;;;;6.10;3.13;;;;;;;22.79;70.34;99743.69;5091621;28;20183;-64
2023/08/27 09:10:04;;;;;;;6.70;3.50;;;;;;;22.29;70.90;99738.66;5096075;27;20174;-67
2023/08/27 09:12:30;;;;;;;9.53;3.00;;;;;;;22.57;70.74;99724.13;5114362;27;20551;-67
2023/08/27 09:14:55;;;;;;;10.37;3.57;;;;;;;22.60;70.10;99712.59;5088784;28;20639;-68
2023/08/27 09:17:22;;;;;;;8.37;3.17;;;;;;;22.43;70.94;99710.59;5071854;28;20178;-66
2023/08/27 09:19:50;;;;;;;11.47;3.03;;;;;;;22.91;69.99;99697.09;5089636;28;20235;-68
2023/08/27 09:22:17;;;;;;;8.20;2.83;;;;;;;22.88;70.04;99708.66;5080412;28;20586;-67
2023/08/27 09:24:43;;;;;;;6.27;2.90;;;;;;;22.94;68.56;99713.53;5091679;28;20422;-66
2023/08/27 09:27:09;;;;;;;6.67;2.87;;;;;;;23.16;68.67;99711.25;5072160;28;20799;-64
2023/08/27 09:29:34;;;;;;;7.00;3.07;;;;;;;22.80;69.15;99707.06;5096976;28;20186;-66
2023/08/27 09:32:00;;;;;;;6.77;2.90;;;;;;;22.53;70.90;99706.88;5078352;28;20178;-64
2023/08/27 09:34:25;;;;;;;6.40;3.30;;;;;;;22.88;69.69;99717.28;5114059;27;20177;-64
2023/08/27 09:36:51;;;;;;;6.03;3.07;;;;;;;23.16;68.60;99725.66;5097307;28;20550;-62
2023/08/27 09:39:16;;;;;;;6.57;3.40;;;;;;;23.08;68.45;99733.53;5090403;28;20212;-63
2023/08/27 09:41:46;;;;;;;4.90;2.77;;;;;;;23.15;68.64;99735.53;5089999;28;20194;-63
2023/08/27 09:44:13;;;;;;;7.47;3.17;;;;;;;23.16;68.50;99729.34;5091309;28;20256;-62
2023/08/27 09:46:40;;;;;;;10.17;3.27;;;;;;;23.25;68.25;99732.59;5081926;28;20432;-62
2023/08/27 09:49:06;;;;;;;6.50;2.80;;;;;;;23.32;67.63;99728.81;5065911;28;20448;-63
2023/08/27 09:51:33;;;;;;;12.00;2.90;;;;;;;23.34;67.80;99715.59;5089806;28;20443;-62
2023/08/27 09:53:59;;;;;;;9.47;2.97;;;;;;;23.36;67.42;99716.03;5092679;28;20481;-62
2023/08/27 09:56:25;;;;;;;6.00;2.57;;;;;;;23.34;67.98;99715.59;5110234;28;20451;-63
2023/08/27 09:58:52;;;;;;;5.90;2.63;;;;;;;23.33;68.08;99711.09;5110817;28;20219;-63
2023/08/27 10:01:18;;;;;;;5.50;2.50;;;;;;;23.35;67.76;99719.31;5108873;28;20571;-63
2023/08/27 10:03:46;;;;;;;5.57;2.70;;;;;;;23.37;67.75;99720.53;5106495;28;20438;-63
2023/08/27 10:06:11;;;;;;;4.80;3.00;;;;;;;23.35;67.72;99730.84;5092390;28;20403;-63
2023/08/27 10:08:50;;;;;;;4.33;2.90;;;;;;;23.38;67.49;99730.81;5110881;28;20404;-65
2023/08/27 10:11:16;;;;;;;9.33;2.30;;;;;;;23.39;67.44;99717.22;5110964;28;20168;-63
2023/08/27 10:13:43;;;;;;;9.93;2.50;;;;;;;23.41;67.49;99715.56;5076468;28;20526;-63
2023/08/27 10:16:09;;;;;;;6.00;3.30;;;;;;;23.41;67.60;99714.72;5090223;28;20170;-63
2023/08/27 10:18:34;;;;;;;5.00;3.20;;;;;;;23.36;67.68;99706.53;5057856;28;20780;-63
2023/08/27 10:21:00;;;;;;;7.43;3.00;;;;;;;23.37;67.69;99717.66;5054506;28;20544;-63
2023/08/27 10:23:25;;;;;;;7.17;2.33;;;;;;;23.36;68.05;99715.19;5090211;28;20244;-62
2023/08/27 10:25:51;;;;;;;9.30;3.03;;;;;;;23.37;67.52;99713.94;5092076;28;20251;-63
2023/08/27 10:28:16;;;;;;;3.67;2.47;;;;;;;23.44;67.50;99714.69;5071865;28;20178;-62
2023/08/27 10:30:44;;;;;;;8.17;2.70;;;;;;;23.41;67.64;99718.44;5075365;28;20170;-63
2023/08/27 10:33:10;;;;;;;7.30;3.10;;;;;;;23.42;67.59;99716.34;5105370;28;20174;-62
2023/08/27 10:35:36;;;;;;;8.17;3.43;;;;;;;23.30;68.79;99717.72;5106462;28;20501;-62
2023/08/27 10:38:02;;;;;;;8.90;3.20;;;;;;;23.38;67.88;99721.34;5092209;28;20182;-62
2023/08/27 10:40:28;;;;;;;6.63;2.87;;;;;;;23.44;67.51;99725.41;5093454;27;20517;-62
2023/08/27 10:43:06;;;;;;;5.20;2.73;;;;;;;23.42;67.98;99730.75;5109230;27;20196;-62
2023/08/27 10:45:35;;;;;;;6.83;2.10;;;;;;;23.40;68.13;99733.25;5108390;27;20771;-63
2023/08/27 10:48:08;;;;;;;6.20;2.80;;;;;;;23.29;68.51;99733.34;5091382;28;20424;-64
2023/08/27 10:50:49;;;;;;;4.67;2.40;;;;;;;23.40;68.17;99728.31;5110005;28;20431;-63
2023/08/27 10:53:15;;;;;;;5.57;2.80;;;;;;;23.42;67.54;99725.00;5105494;28;20510;-63
2023/08/27 10:55:49;;;;;;;5.53;2.60;;;;;;;23.45;67.47;99716.34;5109589;28;20436;-63
2023/08/27 10:58:25;;;;;;;5.10;2.77;;;;;;;23.43;67.53;99710.16;5100688;28;21108;-63
2023/08/27 11:01:00;;;;;;;5.20;2.50;;;;;;;23.42;67.21;99713.47;5089526;28;20462;-63
2023/08/27 11:03:25;;;;;;;4.50;2.77;;;;;;;23.46;67.12;99715.09;5106741;28;20906;-63
2023/08/27 11:06:10;;;;;;;6.17;2.87;;;;;;;23.40;67.50;99713.94;5119716;27;20415;-63
2023/08/27 11:08:35;;;;;;;5.90;2.87;;;;;;;23.44;67.23;99708.91;5106700;28;20188;-61
2023/08/27 11:11:25;;;;;;;8.03;2.83;;;;;;;23.46;66.89;99712.19;5109676;28;20412;-63
2023/08/27 11:14:09;;;;;;;5.43;2.60;;;;;;;23.48;66.93;99709.69;5091728;28;20261;-63
2023/08/27 11:17:00;;;;;;;5.00;2.90;;;;;;;23.48;67.12;99711.78;5070769;28;20522;-62
2023/08/27 11:19:27;;;;;;;7.13;2.60;;;;;;;23.35;66.82;99720.16;5089152;28;20397;-63
2023/08/27 11:21:52;;;;;;;4.60;2.80;;;;;;;23.42;66.59;99720.06;5091181;28;20484;-63
2023/08/27 11:24:23;;;;;;;3.50;2.40;;;;;;;23.42;66.87;99720.06;5070367;28;20432;-63
2023/08/27 11:26:49;;;;;;;6.33;2.43;;;;;;;23.46;66.83;99714.25;5090870;28;20594;-63
2023/08/27 11:29:14;;;;;;;6.23;2.93;;;;;;;23.47;66.64;99725.34;5109061;28;20415;-63